Lufkin, Texas
Current Conditions -  °F | °C
As of 7:53 PM on Saturday 25 Oct 2014 (Local Time) from KLFK Reporting Station
Clear Clear  
Wind Chill: 71°   Ceiling: Unl
Heat Index: 71°   Visibility: 8mi
Dew Point: 66°   Wind: 5mph
Humidity: 84%   Direction: 100°E
Pressure: 30.09"   Gusts: NA
Location:  31.34°N, 94.72°W
Report Text: KLFK 260053Z AUTO 10004KT 8SM CLR 22/19 A3009 RMK AO2 SLP186 T02170189
Loading
Personal Weather Stations






























Interactive Weather Map
Tropical Storm Tracking
New forecast layout! Learn more

10-Day Weather Forecast

Advertisements
Track Severe Weather on mobile